Time;durP1;ratioP1;P1;durP2;ratioP2;P2;SDS_P1;SDS_P2;PMS_P1;PMS_P2;Temp;Humidity;BMP_temperature;BMP_pressure;BME280_temperature;BME280_humidity;BME280_pressure;Samples;Min_cycle;Max_cycle;Signal;HPM_P1;HPM_P2
2023/05/25 00:07:36;;;;;;;1999.90;999.90;;;10.70;99.90;;;;;;6677684;89;20739;-79
2023/05/25 00:17:37;;;;;;;1999.90;999.90;;;10.20;99.90;;;;;;6672777;89;20186;-79
2023/05/25 00:27:37;;;;;;;1999.90;999.90;;;10.10;99.90;;;;;;6679056;89;20695;-79
2023/05/25 00:37:38;;;;;;;1999.90;999.90;;;10.00;99.90;;;;;;6679190;89;20187;-77
2023/05/25 00:47:39;;;;;;;1999.90;999.90;;;10.00;99.90;;;;;;6674366;89;20198;-80
2023/05/25 00:57:44;;;;;;;1999.90;999.90;;;9.70;99.90;;;;;;6678492;89;20323;-78
2023/05/25 01:07:45;;;;;;;1999.90;999.90;;;9.80;99.90;;;;;;6673776;88;20214;-77
2023/05/25 01:17:52;;;;;;;1999.90;999.90;;;9.70;99.90;;;;;;6671995;89;20230;-78
2023/05/25 01:28:34;;;;;;;1999.90;999.90;;;9.70;99.90;;;;;;6681243;77;20227;-80
2023/05/25 01:38:37;;;;;;;1999.90;999.90;;;9.60;99.90;;;;;;6668301;88;20663;-80
2023/05/25 01:48:48;;;;;;;1999.90;999.90;;;9.50;99.90;;;;;;6650747;88;20205;-80
2023/05/25 01:58:50;;;;;;;1999.90;999.90;;;9.40;99.90;;;;;;6680937;88;20284;-80
2023/05/25 02:30:44;;;;;;;1999.90;999.90;;;9.20;99.90;;;;;;6666779;88;20226;-81
2023/05/25 02:40:45;;;;;;;1999.90;999.90;;;9.20;99.90;;;;;;6659144;88;20210;-81
2023/05/25 02:50:45;;;;;;;1999.90;999.90;;;9.00;99.90;;;;;;6669626;88;20500;-81
2023/05/25 03:00:46;;;;;;;1999.90;999.90;;;9.00;99.90;;;;;;6667905;89;20812;-81
2023/05/25 03:10:47;;;;;;;1999.90;999.90;;;8.90;99.90;;;;;;6683098;88;20220;-80
2023/05/25 03:20:47;;;;;;;1999.90;999.90;;;8.70;99.90;;;;;;6680859;88;20665;-80
2023/05/25 03:30:48;;;;;;;1999.90;999.90;;;8.70;99.90;;;;;;6668039;89;20189;-80
2023/05/25 03:40:48;;;;;;;1999.90;999.90;;;8.50;99.90;;;;;;6670023;89;20180;-80
2023/05/25 03:50:49;;;;;;;1999.90;999.90;;;8.30;99.90;;;;;;6682427;88;20226;-80
2023/05/25 04:00:51;;;;;;;1999.90;999.90;;;8.30;99.90;;;;;;6668483;88;20773;-80
2023/05/25 04:10:51;;;;;;;1999.90;999.90;;;8.40;99.90;;;;;;6669085;89;20223;-79
2023/05/25 04:20:54;;;;;;;1999.90;999.90;;;8.30;99.90;;;;;;6698470;88;20259;-80
2023/05/25 04:30:55;;;;;;;1999.90;999.90;;;8.40;99.90;;;;;;6674760;88;20235;-82
2023/05/25 04:40:56;;;;;;;1999.90;999.90;;;8.60;99.90;;;;;;6684044;88;20783;-80
2023/05/25 04:50:57;;;;;;;1999.90;999.90;;;8.70;99.90;;;;;;6672219;89;20172;-80
2023/05/25 05:00:57;;;;;;;1999.90;999.90;;;8.80;99.90;;;;;;6673014;89;20225;-80
2023/05/25 05:10:58;;;;;;;1999.90;999.90;;;8.90;99.90;;;;;;6669743;88;20206;-80
2023/05/25 05:20:59;;;;;;;1999.90;999.90;;;8.90;99.90;;;;;;6659897;88;20242;-81
2023/05/25 05:30:59;;;;;;;1999.90;999.90;;;9.20;99.90;;;;;;6671706;88;20183;-80
2023/05/25 05:41:01;;;;;;;1999.90;999.90;;;9.40;99.90;;;;;;6674711;88;20578;-81
2023/05/25 05:51:03;;;;;;;1999.90;999.90;;;9.40;99.90;;;;;;6677868;88;20205;-81
2023/05/25 06:01:05;;;;;;;1999.90;999.90;;;9.80;99.90;;;;;;6671462;88;20188;-79
2023/05/25 06:11:05;;;;;;;1999.90;999.90;;;10.90;99.90;;;;;;6680888;88;20196;-80
2023/05/25 06:21:06;;;;;;;1999.90;999.90;;;11.80;99.90;;;;;;6669483;88;20187;-81
2023/05/25 06:31:07;;;;;;;1999.90;999.90;;;12.60;99.90;;;;;;6672426;88;20201;-80
2023/05/25 06:41:08;;;;;;;1999.90;999.90;;;13.10;99.90;;;;;;6668977;88;20196;-80
2023/05/25 06:51:09;;;;;;;1999.90;999.90;;;13.50;99.90;;;;;;6681672;88;20327;-81
2023/05/25 07:01:09;;;;;;;1999.90;999.90;;;14.30;99.90;;;;;;6668491;88;20234;-81
2023/05/25 07:11:11;;;;;;;1999.90;999.90;;;15.20;99.90;;;;;;6671348;88;20192;-81
2023/05/25 07:21:11;;;;;;;1999.90;999.90;;;15.90;99.90;;;;;;6702790;88;20202;-81
2023/05/25 07:31:12;;;;;;;1999.90;999.90;;;16.40;99.90;;;;;;6686007;77;20241;-77
2023/05/25 07:41:13;;;;;;;1999.90;999.90;;;16.70;99.90;;;;;;6730087;88;20230;-77
2023/05/25 07:51:13;;;;;;;1999.90;999.90;;;17.40;99.90;;;;;;6748716;88;20219;-77
2023/05/25 08:01:17;;;;;;;1999.90;999.90;;;17.60;99.90;;;;;;6748889;88;20208;-76
2023/05/25 08:11:22;;;;;;;1999.90;999.90;;;18.30;99.90;;;;;;6746689;88;20201;-78
2023/05/25 08:21:22;;;;;;;1999.90;999.90;;;18.40;99.90;;;;;;6746927;88;20201;-78
2023/05/25 08:31:23;;;;;;;1999.90;999.90;;;19.00;99.90;;;;;;6747076;87;20185;-76
2023/05/25 08:41:23;;;;;;;1999.90;999.90;;;19.80;99.90;;;;;;6759146;88;20200;-77
2023/05/25 08:51:24;;;;;;;1999.90;999.90;;;20.60;99.90;;;;;;6742102;88;20196;-76
2023/05/25 09:01:29;;;;;;;1999.90;999.90;;;21.30;99.80;;;;;;6747142;88;20180;-77
2023/05/25 09:11:31;;;;;;;1999.90;999.90;;;21.70;98.80;;;;;;6739521;88;20290;-77
2023/05/25 09:21:31;;;;;;;1999.90;999.90;;;21.90;98.00;;;;;;6747458;88;20237;-77
2023/05/25 09:31:32;;;;;;;1999.90;999.90;;;22.30;97.10;;;;;;6741524;88;20388;-76
2023/05/25 09:41:33;;;;;;;1999.90;999.90;;;22.30;97.00;;;;;;6742603;88;20778;-77
2023/05/25 09:51:35;;;;;;;1999.90;999.90;;;23.20;96.70;;;;;;6751139;87;20596;-77
2023/05/25 10:01:35;;;;;;;1999.90;999.90;;;21.80;98.00;;;;;;6744428;88;20188;-78
2023/05/25 10:11:39;;;;;;;1999.90;999.90;;;23.20;96.60;;;;;;6738259;88;20239;-77
2023/05/25 10:21:41;;;;;;;1999.90;999.90;;;24.40;95.00;;;;;;6741742;88;20218;-79
2023/05/25 10:31:41;;;;;;;1999.90;999.90;;;24.50;94.40;;;;;;6740280;88;20339;-78
2023/05/25 10:41:42;;;;;;;1999.90;999.90;;;25.60;93.50;;;;;;6741331;88;20270;-77
2023/05/25 10:51:56;;;;;;;1999.90;999.90;;;25.80;93.70;;;;;;6736758;88;20301;-77
2023/05/25 11:02:05;;;;;;;1999.90;999.90;;;25.40;92.60;;;;;;6749691;88;20204;-77
2023/05/25 11:12:06;;;;;;;1999.90;999.90;;;26.30;91.80;;;;;;6745723;88;20200;-78
2023/05/25 11:22:15;;;;;;;1999.90;999.90;;;25.60;92.40;;;;;;6740395;88;20375;-78
2023/05/25 11:32:15;;;;;;;1999.90;999.90;;;27.30;90.80;;;;;;6745820;88;20202;-78
2023/05/25 11:42:20;;;;;;;1999.90;999.90;;;27.60;89.70;;;;;;6743361;88;20177;-78
2023/05/25 11:52:21;;;;;;;1999.90;999.90;;;28.60;86.30;;;;;;6742691;87;20705;-78
2023/05/25 12:02:23;;;;;;;1999.90;999.90;;;28.20;84.10;;;;;;6744276;88;20196;-77
2023/05/25 12:12:23;;;;;;;1999.90;999.90;;;27.30;85.90;;;;;;6736503;88;20189;-77
2023/05/25 12:22:24;;;;;;;1999.90;999.90;;;27.20;86.50;;;;;;6736752;88;20585;-78
2023/05/25 12:32:25;;;;;;;1999.90;999.90;;;26.70;84.80;;;;;;6743173;87;20197;-77
2023/05/25 12:42:26;;;;;;;1999.90;999.90;;;25.30;87.50;;;;;;6748642;88;20193;-78
2023/05/25 12:52:38;;;;;;;1999.90;999.90;;;24.70;88.50;;;;;;6744546;88;20659;-77
2023/05/25 13:02:43;;;;;;;1999.90;999.90;;;25.50;89.00;;;;;;6744433;88;20257;-76
2023/05/25 13:12:45;;;;;;;1999.90;999.90;;;25.50;88.70;;;;;;6747603;88;20367;-77
2023/05/25 13:22:47;;;;;;;1999.90;999.90;;;24.30;90.00;;;;;;6747946;88;20272;-77
2023/05/25 13:33:09;;;;;;;1999.90;999.90;;;23.90;90.90;;;;;;6786974;78;20181;-83
2023/05/25 13:43:10;;;;;;;1999.90;999.90;;;24.30;90.30;;;;;;6691875;87;20240;-84
2023/05/25 13:53:11;;;;;;;1999.90;999.90;;;24.40;90.20;;;;;;6691377;89;20251;-83
2023/05/25 14:03:12;;;;;;;1999.90;999.90;;;24.20;90.00;;;;;;6688096;89;20203;-82
2023/05/25 14:13:13;;;;;;;1999.90;999.90;;;24.30;90.20;;;;;;6691163;89;20191;-81
2023/05/25 14:23:14;;;;;;;1999.90;999.90;;;24.10;90.10;;;;;;6692175;88;20209;-81
2023/05/25 14:33:16;;;;;;;1999.90;999.90;;;25.10;89.70;;;;;;6687016;89;20212;-81
2023/05/25 14:43:16;;;;;;;1999.90;999.90;;;24.60;89.50;;;;;;6686288;89;20225;-84
2023/05/25 14:53:17;;;;;;;1999.90;999.90;;;24.90;88.90;;;;;;6686501;88;20171;-81
2023/05/25 15:03:17;;;;;;;1999.90;999.90;;;24.60;88.40;;;;;;6677747;87;20165;-84
2023/05/25 15:13:21;;;;;;;1999.90;999.90;;;24.80;89.30;;;;;;6676244;88;20269;-84
2023/05/25 15:23:21;;;;;;;;;;;24.90;88.00;;;;;;6684361;87;20199;-83
2023/05/25 15:33:22;;;;;;;1999.90;999.90;;;24.40;89.00;;;;;;6696049;87;20060;-84
2023/05/25 15:43:22;;;;;;;1999.90;999.90;;;23.80;89.40;;;;;;6697706;87;20215;-84
2023/05/25 15:53:23;;;;;;;1999.90;999.90;;;24.00;89.00;;;;;;6694280;87;20191;-84
2023/05/25 16:03:23;;;;;;;1999.90;999.90;;;23.90;88.50;;;;;;6693667;88;20213;-82
2023/05/25 16:13:24;;;;;;;1999.90;999.90;;;24.00;88.30;;;;;;6693341;88;20179;-83
2023/05/25 16:23:24;;;;;;;1999.90;999.90;;;23.80;87.80;;;;;;6691605;87;20262;-82
2023/05/25 16:33:25;;;;;;;1999.90;999.90;;;22.90;89.00;;;;;;6681542;87;20194;-81
2023/05/25 16:43:25;;;;;;;1999.90;999.90;;;22.40;90.20;;;;;;6677501;89;20254;-81
2023/05/25 16:53:26;;;;;;;1999.90;999.90;;;22.20;89.90;;;;;;6671989;89;20199;-80
2023/05/25 17:03:26;;;;;;;1999.90;999.90;;;21.80;90.10;;;;;;6676968;89;20236;-80
2023/05/25 17:13:27;;;;;;;1999.90;999.90;;;21.50;91.00;;;;;;6672603;89;20192;-81
2023/05/25 17:23:28;;;;;;;1999.90;999.90;;;21.40;91.20;;;;;;6673734;89;20190;-82
2023/05/25 17:33:28;;;;;;;1999.90;999.90;;;21.20;91.60;;;;;;6679640;89;20245;-82
2023/05/25 17:43:29;;;;;;;1999.90;999.90;;;21.00;91.70;;;;;;6680663;87;20211;-81
2023/05/25 17:53:29;;;;;;;1999.90;999.90;;;20.80;92.10;;;;;;6677648;89;20302;-80
2023/05/25 18:03:30;;;;;;;1999.90;999.90;;;20.50;92.40;;;;;;6678710;89;20216;-81
2023/05/25 18:13:30;;;;;;;1999.90;999.90;;;20.20;93.10;;;;;;6681137;89;20198;-80
2023/05/25 18:23:31;;;;;;;1999.90;999.90;;;19.60;93.80;;;;;;6679710;89;20949;-80
2023/05/25 18:33:31;;;;;;;1999.90;999.90;;;19.30;94.40;;;;;;6677293;88;20191;-78
2023/05/25 18:43:32;;;;;;;1999.90;999.90;;;18.90;94.60;;;;;;6676614;88;20297;-78
2023/05/25 18:53:32;;;;;;;1999.90;999.90;;;18.50;95.00;;;;;;6672391;88;20249;-79
2023/05/25 19:03:33;;;;;;;1999.90;999.90;;;18.20;95.50;;;;;;6674780;88;20260;-78
2023/05/25 19:13:33;;;;;;;1999.90;999.90;;;17.70;95.90;;;;;;6659147;88;20248;-79
2023/05/25 19:23:34;;;;;;;1999.90;999.90;;;17.40;96.20;;;;;;6668211;89;20183;-79
2023/05/25 19:33:35;;;;;;;1999.90;999.90;;;17.00;96.90;;;;;;6689353;89;20193;-81
2023/05/25 19:43:36;;;;;;;1999.90;999.90;;;16.80;97.30;;;;;;6692534;88;20241;-80
2023/05/25 19:53:36;;;;;;;1999.90;999.90;;;16.60;98.20;;;;;;6688183;89;20204;-80
2023/05/25 20:03:37;;;;;;;1999.90;999.90;;;16.40;98.60;;;;;;6686652;88;20871;-80
2023/05/25 20:13:37;;;;;;;1999.90;999.90;;;16.20;99.50;;;;;;6680526;88;20227;-79
2023/05/25 20:23:38;;;;;;;1999.90;999.90;;;16.10;99.90;;;;;;6677645;89;20176;-80
2023/05/25 20:33:39;;;;;;;1999.90;999.90;;;15.90;99.90;;;;;;6678052;88;20750;-80
2023/05/25 20:43:40;;;;;;;1999.90;999.90;;;15.70;99.90;;;;;;6669938;89;20311;-80
2023/05/25 20:53:40;;;;;;;1999.90;999.90;;;15.60;99.90;;;;;;6678491;87;20215;-81
2023/05/25 21:03:41;;;;;;;1999.90;999.90;;;15.40;99.90;;;;;;6687402;87;20210;-81
2023/05/25 21:13:45;;;;;;;1999.90;999.90;;;15.20;99.90;;;;;;6691000;87;20213;-82
2023/05/25 21:23:45;;;;;;;1999.90;999.90;;;15.10;99.90;;;;;;6691843;89;20292;-82
2023/05/25 21:33:46;;;;;;;1999.90;999.90;;;14.90;99.90;;;;;;6690463;88;20771;-80
2023/05/25 21:43:46;;;;;;;1999.90;999.90;;;14.60;99.90;;;;;;6670821;89;20860;-80
2023/05/25 21:53:47;;;;;;;1999.90;999.90;;;14.40;99.90;;;;;;6670401;88;20741;-80
2023/05/25 22:03:47;;;;;;;1999.90;999.90;;;14.20;99.90;;;;;;6741567;88;20308;-83
2023/05/25 22:13:48;;;;;;;1999.90;999.90;;;14.10;99.90;;;;;;6691895;88;20207;-78
2023/05/25 22:23:48;;;;;;;1999.90;999.90;;;14.10;99.90;;;;;;6672495;89;20191;-80
2023/05/25 22:33:49;;;;;;;1999.90;999.90;;;14.00;99.90;;;;;;6664549;89;20193;-80
2023/05/25 22:43:49;;;;;;;1999.90;999.90;;;13.80;99.90;;;;;;6669669;89;20273;-78
2023/05/25 22:53:50;;;;;;;1999.90;999.90;;;13.70;99.90;;;;;;6683561;88;20586;-79
2023/05/25 23:03:51;;;;;;;1999.90;999.90;;;13.50;99.90;;;;;;6684813;89;20213;-80
2023/05/25 23:13:53;;;;;;;1999.90;999.90;;;13.20;99.90;;;;;;6685864;88;20321;-80
2023/05/25 23:23:53;;;;;;;1999.90;999.90;;;13.30;99.90;;;;;;6692162;87;20273;-80
2023/05/25 23:33:54;;;;;;;1999.90;999.90;;;13.20;99.90;;;;;;6682131;89;20200;-80
2023/05/25 23:43:54;;;;;;;1999.90;999.90;;;13.10;99.90;;;;;;6698995;88;20195;-79
2023/05/25 23:53:55;;;;;;;1999.90;999.90;;;13.00;99.90;;;;;;6691847;88;20179;-80
